Time;durP1;ratioP1;P1;durP2;ratioP2;P2;SDS_P1;SDS_P2;PMS_P1;PMS_P2;Temp;Humidity;BMP_temperature;BMP_pressure;BME280_temperature;BME280_humidity;BME280_pressure;Samples;Min_cycle;Max_cycle;Signal;HPM_P1;HPM_P2
2023/04/12 00:01:09;;;;;;;1.77;0.90;;;2.20;99.90;1.80;100242.00;;;;5008387;27;91854;-65
2023/04/12 00:03:35;;;;;;;1.20;0.97;;;2.20;99.90;1.80;100234.00;;;;5008437;27;87694;-66
2023/04/12 00:06:02;;;;;;;1.07;1.07;;;2.10;99.90;1.70;100225.00;;;;5007075;27;89867;-65
2023/04/12 00:08:31;;;;;;;1.07;0.97;;;2.10;99.90;1.70;100229.00;;;;5005897;27;90170;-65
2023/04/12 00:11:02;;;;;;;2.40;1.40;;;2.10;99.90;1.70;100224.00;;;;5008660;27;89563;-66
2023/04/12 00:13:28;;;;;;;1.47;1.07;;;2.60;99.90;1.70;100228.00;;;;5005417;27;87815;-66
2023/04/12 00:15:54;;;;;;;1.13;1.03;;;2.00;99.90;1.60;100217.00;;;;5009794;27;87894;-66
2023/04/12 00:18:23;;;;;;;1.23;0.80;;;2.50;99.90;1.60;100212.00;;;;4995138;27;116758;-66
2023/04/12 00:20:53;;;;;;;1.13;0.93;;;1.90;99.90;1.60;100215.00;;;;4995852;27;89314;-66
2023/04/12 00:23:19;;;;;;;1.77;0.73;;;1.90;99.90;1.60;100212.00;;;;5022625;27;87834;-66
2023/04/12 00:25:45;;;;;;;1.30;1.07;;;1.90;99.90;1.60;100208.00;;;;5011273;27;87062;-66
2023/04/12 00:28:11;;;;;;;1.63;1.53;;;1.90;99.90;1.60;100213.00;;;;5006431;27;116046;-65
2023/04/12 00:30:36;;;;;;;2.10;1.30;;;1.90;99.90;1.60;100218.00;;;;5008633;27;88974;-66
2023/04/12 00:33:02;;;;;;;3.27;0.90;;;1.90;99.90;1.50;100208.00;;;;5007398;27;99717;-66
2023/04/12 00:35:28;;;;;;;1.30;1.20;;;1.90;99.90;1.50;100191.00;;;;5009259;27;87971;-66
2023/04/12 00:37:53;;;;;;;1.60;1.17;;;1.80;99.90;1.50;100191.00;;;;5007665;27;117551;-66
2023/04/12 00:40:19;;;;;;;1.13;0.77;;;1.80;99.90;1.50;100198.00;;;;5009696;27;88035;-66
2023/04/12 00:42:45;;;;;;;1.03;0.90;;;1.80;99.90;1.40;100190.00;;;;5003419;27;88086;-66
2023/04/12 00:45:11;;;;;;;1.20;1.10;;;1.80;99.90;1.40;100183.00;;;;5006998;27;87895;-66
2023/04/12 00:47:38;;;;;;;2.97;1.60;;;1.70;99.90;1.40;100185.00;;;;5005294;27;114437;-65
2023/04/12 00:50:05;;;;;;;1.13;0.93;;;1.70;99.90;1.30;100184.00;;;;4993212;27;108431;-66
2023/04/12 00:52:33;;;;;;;2.17;1.40;;;1.60;99.90;1.30;100185.00;;;;5010115;27;87867;-66
2023/04/12 00:55:09;;;;;;;2.00;1.10;;;1.70;99.90;1.20;100188.00;;;;5008396;27;87707;-66
2023/04/12 00:57:37;;;;;;;1.83;1.13;;;1.60;99.90;1.20;100179.00;;;;5006494;27;90007;-66
2023/04/12 01:00:12;;;;;;;2.20;1.57;;;1.60;99.90;1.10;100182.00;;;;5005999;27;89016;-66
2023/04/12 01:02:45;;;;;;;1.47;1.33;;;1.50;99.90;1.10;100183.00;;;;5008105;27;87765;-66
2023/04/12 01:05:13;;;;;;;3.03;1.20;;;1.40;99.90;1.00;100171.00;;;;5019516;27;87817;-65
2023/04/12 01:08:09;;;;;;;1.87;1.40;;;1.40;99.90;0.90;100174.00;;;;5023060;27;89034;-66
2023/04/12 01:11:16;;;;;;;1.23;1.13;;;1.30;99.90;0.80;100177.00;;;;5007772;27;87851;-66
2023/04/12 01:13:57;;;;;;;2.70;1.60;;;1.30;99.90;0.80;100176.00;;;;4992817;27;92515;-66
2023/04/12 01:16:31;;;;;;;1.43;1.20;;;1.20;99.90;0.80;100177.00;;;;5008345;27;101508;-66
2023/04/12 01:19:05;;;;;;;4.00;1.77;;;1.20;99.90;0.80;100166.00;;;;5009439;27;109929;-66
2023/04/12 01:21:44;;;;;;;2.13;1.30;;;1.10;99.90;0.70;100158.00;;;;5003326;27;88568;-65
2023/04/12 01:24:45;;;;;;;1.97;1.40;;;1.20;99.90;0.60;100160.00;;;;5021898;27;88798;-66
2023/04/12 01:27:29;;;;;;;4.67;1.93;;;1.10;99.90;0.60;100149.00;;;;4983465;27;87849;-66
2023/04/12 01:29:57;;;;;;;4.43;2.00;;;1.00;99.90;0.60;100144.00;;;;4995958;27;87958;-66
2023/04/12 01:32:23;;;;;;;2.03;1.43;;;1.00;99.90;0.60;100144.00;;;;5005453;27;116885;-66
2023/04/12 01:34:50;;;;;;;1.40;1.30;;;0.90;99.90;0.60;100139.00;;;;5020131;27;111570;-66
2023/04/12 01:37:18;;;;;;;1.87;1.50;;;0.90;99.90;0.60;100141.00;;;;4996341;27;105904;-65
2023/04/12 01:39:45;;;;;;;1.43;1.03;;;0.90;99.90;0.60;100137.00;;;;5021654;27;88131;-65
2023/04/12 01:42:11;;;;;;;3.07;1.47;;;0.80;99.90;0.50;100140.00;;;;5021107;27;117597;-66
2023/04/12 01:44:36;;;;;;;1.93;1.70;;;0.80;99.90;0.50;100126.00;;;;5002428;27;110530;-66
2023/04/12 01:47:02;;;;;;;2.77;1.70;;;0.60;99.90;0.50;100124.00;;;;5008806;27;109302;-66
2023/04/12 01:49:41;;;;;;;1.50;1.37;;;0.80;99.90;0.60;100129.00;;;;5020096;27;89070;-66
2023/04/12 01:52:21;;;;;;;2.33;1.73;;;1.00;99.90;0.60;100123.00;;;;5020792;27;109741;-65
2023/04/12 01:54:50;;;;;;;3.70;1.93;;;0.90;99.90;0.60;100123.00;;;;5007997;27;88090;-66
2023/04/12 01:57:17;;;;;;;3.23;1.67;;;1.00;99.90;0.60;100123.00;;;;5009839;27;87869;-66
2023/04/12 01:59:44;;;;;;;3.67;2.33;;;0.90;99.90;0.60;100124.00;;;;4990686;27;118166;-66
2023/04/12 02:02:12;;;;;;;1.67;1.57;;;0.90;99.90;0.60;100118.00;;;;5022970;27;89441;-66
2023/04/12 02:04:38;;;;;;;2.60;1.07;;;0.90;99.90;0.60;100114.00;;;;5013348;27;88058;-65
2023/04/12 02:07:04;;;;;;;1.90;1.40;;;0.90;99.90;0.60;100122.00;;;;4994654;27;87398;-65
2023/04/12 02:09:35;;;;;;;1.80;1.50;;;1.00;99.90;0.60;100109.00;;;;5009339;27;88118;-65
2023/04/12 02:12:01;;;;;;;3.70;2.30;;;1.10;99.90;0.50;100110.00;;;;5007426;27;88536;-65
2023/04/12 02:14:26;;;;;;;3.13;2.00;;;1.00;99.90;0.50;100110.00;;;;5007975;27;88795;-66
2023/04/12 02:16:54;;;;;;;5.17;1.93;;;1.40;99.90;0.50;100108.00;;;;5009940;27;87790;-65
2023/04/12 02:19:20;;;;;;;3.73;2.00;;;0.90;99.90;0.50;100093.00;;;;5014643;27;88814;-66
2023/04/12 02:21:45;;;;;;;3.23;2.07;;;1.40;99.90;0.40;100096.00;;;;5007254;27;117378;-66
2023/04/12 02:24:11;;;;;;;1.53;1.43;;;0.80;99.90;0.40;100082.00;;;;5011689;27;109889;-65
2023/04/12 02:26:38;;;;;;;4.00;2.03;;;0.90;99.90;0.40;100088.00;;;;5010057;27;87872;-65
2023/04/12 02:29:07;;;;;;;3.30;1.90;;;0.70;99.90;0.30;100068.00;;;;5010722;27;89117;-66
2023/04/12 02:31:37;;;;;;;1.83;1.33;;;0.70;99.90;0.30;100066.00;;;;5010465;27;87900;-66
2023/04/12 02:34:04;;;;;;;2.20;1.10;;;0.60;99.90;0.30;100074.00;;;;5008064;27;87629;-65
2023/04/12 02:36:30;;;;;;;2.57;1.77;;;0.60;99.90;0.20;100069.00;;;;5009585;27;96198;-65
2023/04/12 02:38:56;;;;;;;3.77;2.13;;;0.50;99.90;0.20;100068.00;;;;5006740;27;88613;-65
2023/04/12 02:41:25;;;;;;;5.27;2.33;;;0.60;99.90;0.10;100054.00;;;;5008123;27;119467;-65
2023/04/12 02:43:51;;;;;;;4.60;1.60;;;0.50;99.90;0.10;100062.00;;;;5007766;27;89346;-65
2023/04/12 02:46:22;;;;;;;2.50;1.43;;;0.50;99.90;0.00;100052.00;;;;5008882;27;109237;-65
2023/04/12 02:48:48;;;;;;;1.27;1.17;;;0.40;99.90;0.10;100048.00;;;;5010403;27;88077;-65
2023/04/12 02:51:14;;;;;;;2.33;1.47;;;0.40;99.90;0.00;100043.00;;;;5022135;27;99329;-66
2023/04/12 02:53:40;;;;;;;5.97;2.13;;;0.40;99.90;0.00;100048.00;;;;5007473;27;87762;-65
2023/04/12 02:56:07;;;;;;;2.83;1.27;;;0.40;99.90;0.00;100052.00;;;;5006492;27;87183;-65
2023/04/12 02:58:35;;;;;;;1.73;1.50;;;0.30;99.90;0.00;100039.00;;;;5009711;27;88966;-65
2023/04/12 03:01:06;;;;;;;3.10;1.70;;;0.40;99.90;-0.10;100043.00;;;;5007888;27;108079;-65
2023/04/12 03:03:34;;;;;;;3.93;1.63;;;0.80;99.90;-0.10;100042.00;;;;5006219;27;88793;-65
2023/04/12 03:06:00;;;;;;;3.20;1.83;;;0.30;99.90;-0.20;100040.00;;;;5009136;27;107877;-65
2023/04/12 03:08:26;;;;;;;2.17;1.60;;;0.20;99.90;-0.20;100042.00;;;;5006285;27;117959;-65
2023/04/12 03:10:52;;;;;;;3.57;2.50;;;0.30;99.90;-0.20;100028.00;;;;5006403;27;116320;-66
2023/04/12 03:13:17;;;;;;;3.67;1.57;;;0.20;99.90;-0.30;100031.00;;;;4992795;27;110343;-66
2023/04/12 03:15:45;;;;;;;1.60;1.43;;;0.10;99.90;-0.30;100029.00;;;;5007948;27;108850;-65
2023/04/12 03:18:10;;;;;;;1.93;1.40;;;0.10;99.90;-0.30;100034.00;;;;5008114;27;91371;-65
2023/04/12 03:20:38;;;;;;;3.40;1.93;;;0.10;99.90;-0.40;100029.00;;;;5007977;27;117184;-65
2023/04/12 03:23:04;;;;;;;3.93;2.03;;;0.00;99.90;-0.40;100016.00;;;;5005661;27;87747;-65
2023/04/12 03:25:30;;;;;;;2.23;1.57;;;0.00;99.90;-0.40;100016.00;;;;5011146;27;87866;-66
2023/04/12 03:27:55;;;;;;;2.57;1.43;;;-0.10;99.90;-0.40;100016.00;;;;5009422;27;88604;-65
2023/04/12 03:30:21;;;;;;;2.77;2.23;;;0.00;99.90;-0.40;100017.00;;;;5008697;27;105527;-65
2023/04/12 03:32:47;;;;;;;3.00;1.53;;;0.80;99.90;-0.50;100019.00;;;;5004206;27;100568;-65
2023/04/12 03:35:12;;;;;;;2.03;1.63;;;0.00;99.90;-0.50;100012.00;;;;5007687;27;108489;-66
2023/04/12 03:37:41;;;;;;;2.07;1.87;;;-0.10;99.90;-0.50;100020.00;;;;5005189;27;117820;-66
2023/04/12 03:40:08;;;;;;;1.83;1.57;;;-0.10;99.90;-0.50;100009.00;;;;5007047;27;90031;-66
2023/04/12 03:42:35;;;;;;;2.53;1.93;;;0.50;99.90;-0.50;100008.00;;;;5007274;27;89293;-65
2023/04/12 03:45:01;;;;;;;1.63;1.17;;;-0.20;99.90;-0.50;100012.00;;;;5011392;27;89433;-66
2023/04/12 03:47:26;;;;;;;2.80;2.00;;;-0.10;99.90;-0.50;100004.00;;;;5011638;27;88812;-65
2023/04/12 03:50:01;;;;;;;2.60;2.40;;;-0.10;99.90;-0.50;100004.00;;;;5006505;27;97856;-65
2023/04/12 03:52:27;;;;;;;5.97;2.30;;;-0.10;99.90;-0.50;99999.00;;;;5007034;27;91596;-65
2023/04/12 03:54:53;;;;;;;2.33;2.00;;;-0.10;99.90;-0.50;99992.00;;;;5006462;27;109227;-65
2023/04/12 03:57:18;;;;;;;3.03;2.10;;;-0.10;99.90;-0.50;99985.00;;;;5006921;27;118387;-66
2023/04/12 03:59:44;;;;;;;2.87;2.10;;;0.20;99.90;-0.60;99982.00;;;;5010097;27;116204;-65
2023/04/12 04:02:10;;;;;;;3.20;1.90;;;-0.10;99.90;-0.60;99983.00;;;;5009411;27;87965;-65
2023/04/12 04:04:36;;;;;;;4.17;2.70;;;-0.20;99.90;-0.60;100000.00;;;;5009169;27;87853;-65
2023/04/12 04:07:02;;;;;;;2.80;1.83;;;-0.20;99.90;-0.60;99995.00;;;;5009690;27;89334;-65
2023/04/12 04:09:28;;;;;;;2.37;1.80;;;-0.20;99.90;-0.60;99994.00;;;;5010041;27;87390;-65
2023/04/12 04:11:54;;;;;;;3.87;2.00;;;-0.30;99.90;-0.60;99975.00;;;;5006068;27;110088;-65
2023/04/12 04:14:20;;;;;;;4.00;2.70;;;-0.20;99.90;-0.60;99973.00;;;;5005730;27;88020;-65
2023/04/12 04:16:46;;;;;;;5.13;2.23;;;-0.20;99.90;-0.60;99978.00;;;;5007072;27;118060;-65
2023/04/12 04:19:11;;;;;;;4.27;2.63;;;-0.20;99.90;-0.70;99975.00;;;;4999050;27;118677;-65
2023/04/12 04:21:39;;;;;;;2.60;1.70;;;-0.20;99.90;-0.70;99965.00;;;;5006862;27;108206;-65
2023/04/12 04:24:05;;;;;;;4.30;2.27;;;-0.30;99.90;-0.70;99963.00;;;;5008640;27;88022;-65
2023/04/12 04:26:32;;;;;;;3.50;2.50;;;-0.30;99.90;-0.70;99962.00;;;;5010184;27;88930;-65
2023/04/12 04:29:02;;;;;;;2.50;1.93;;;-0.30;99.90;-0.70;99954.00;;;;5022301;27;88110;-65
2023/04/12 04:31:35;;;;;;;3.43;2.60;;;-0.30;99.90;-0.60;99959.00;;;;5008830;27;87638;-65
2023/04/12 04:34:04;;;;;;;5.47;2.27;;;-0.30;99.90;-0.60;99959.00;;;;5010623;27;87275;-65
2023/04/12 04:36:34;;;;;;;1.80;1.30;;;-0.30;99.90;-0.60;99962.00;;;;5007762;27;88994;-67
2023/04/12 04:39:01;;;;;;;4.37;2.57;;;-0.20;99.90;-0.50;99957.00;;;;5008234;27;87825;-66
2023/04/12 04:41:26;;;;;;;4.23;2.30;;;-0.20;99.90;-0.40;99962.00;;;;5006288;27;88774;-67
2023/04/12 04:43:53;;;;;;;5.87;2.93;;;-0.10;99.90;-0.30;99949.00;;;;5006824;27;108947;-65
2023/04/12 04:46:22;;;;;;;4.37;2.90;;;0.00;99.90;-0.30;99952.00;;;;5007268;27;88499;-65
2023/04/12 04:48:57;;;;;;;4.33;2.23;;;0.00;99.90;-0.20;99953.00;;;;5003368;27;88006;-65
2023/04/12 04:51:23;;;;;;;7.33;2.70;;;0.30;99.90;-0.10;99951.00;;;;5000703;27;87822;-67
2023/04/12 04:53:49;;;;;;;4.37;3.13;;;0.30;99.90;0.10;99951.00;;;;4998063;27;101453;-67
2023/04/12 04:56:15;;;;;;;5.53;4.40;;;0.30;99.90;0.20;99953.00;;;;4998736;27;117718;-67
2023/04/12 04:58:40;;;;;;;6.43;4.97;;;0.40;99.90;0.40;99955.00;;;;4986719;27;87939;-65
2023/04/12 05:01:06;;;;;;;3.73;3.13;;;0.80;99.90;0.60;99958.00;;;;5004458;27;108386;-65
2023/04/12 05:03:32;;;;;;;5.40;3.83;;;0.90;99.90;0.90;99959.00;;;;5003888;27;109055;-65
2023/04/12 05:06:00;;;;;;;6.60;4.13;;;1.10;99.90;1.10;99960.00;;;;5002886;27;89028;-66
2023/04/12 05:08:27;;;;;;;9.83;5.03;;;1.30;99.90;1.30;99955.00;;;;5001121;27;89050;-66
2023/04/12 05:10:55;;;;;;;5.93;3.63;;;1.50;99.90;1.60;99962.00;;;;5005035;27;87813;-65
2023/04/12 05:13:21;;;;;;;5.87;3.83;;;1.80;99.90;1.80;99956.00;;;;4988410;27;88931;-65
2023/04/12 05:15:47;;;;;;;2.83;2.50;;;2.00;99.90;2.00;99962.00;;;;5004989;27;102065;-65
2023/04/12 05:18:13;;;;;;;7.13;4.23;;;2.20;99.90;2.20;99954.00;;;;5000069;27;109244;-65
2023/04/12 05:20:39;;;;;;;5.87;3.53;;;2.40;99.90;2.40;99963.00;;;;5000316;27;87750;-65
2023/04/12 05:23:05;;;;;;;2.97;2.37;;;2.60;99.90;2.60;99955.00;;;;5005839;27;89080;-65
2023/04/12 05:25:31;;;;;;;3.03;2.83;;;2.80;99.90;2.90;99955.00;;;;5003094;27;117839;-65
2023/04/12 05:27:57;;;;;;;2.87;2.13;;;3.00;99.90;3.20;99954.00;;;;5000668;27;88923;-65
2023/04/12 05:30:23;;;;;;;4.97;2.40;;;3.30;99.90;3.40;99954.00;;;;5002319;27;103675;-65
2023/04/12 05:32:49;;;;;;;6.00;1.60;;;3.80;99.90;3.60;99951.00;;;;5008383;27;87811;-65
2023/04/12 05:35:15;;;;;;;3.80;1.90;;;3.70;99.90;3.70;99942.00;;;;5009307;27;87907;-65
2023/04/12 05:37:40;;;;;;;3.17;1.73;;;3.80;99.90;3.80;99944.00;;;;5004713;27;117434;-65
2023/04/12 05:40:08;;;;;;;2.63;1.67;;;4.00;99.90;3.90;99936.00;;;;5004427;27;110921;-65
2023/04/12 05:42:38;;;;;;;1.73;1.63;;;4.10;99.90;3.80;99932.00;;;;5007670;27;87740;-65
2023/04/12 05:45:05;;;;;;;2.00;1.70;;;4.60;99.90;3.90;99926.00;;;;5006170;27;88881;-65
2023/04/12 05:47:30;;;;;;;2.27;1.30;;;4.10;99.90;4.10;99925.00;;;;5008736;27;88805;-65
2023/04/12 05:49:56;;;;;;;3.10;1.60;;;4.20;99.90;4.20;99923.00;;;;5004963;27;111194;-65
2023/04/12 05:52:22;;;;;;;4.23;1.47;;;4.40;99.90;4.40;99918.00;;;;5006162;27;108936;-65
2023/04/12 05:54:47;;;;;;;1.60;1.50;;;4.60;99.90;4.70;99915.00;;;;5009604;27;89018;-65
2023/04/12 05:57:14;;;;;;;3.77;1.70;;;4.90;99.90;5.00;99910.00;;;;5003359;27;117764;-65
2023/04/12 05:59:40;;;;;;;1.53;1.43;;;5.50;99.90;5.30;99907.00;;;;5006071;27;87909;-65
2023/04/12 06:02:06;;;;;;;2.73;1.40;;;5.30;99.90;5.60;99909.00;;;;5007991;27;87975;-66
2023/04/12 06:04:32;;;;;;;2.93;1.30;;;5.60;99.90;5.80;99898.00;;;;5005249;27;88485;-65
2023/04/12 06:06:58;;;;;;;1.57;1.47;;;5.80;99.90;6.10;99886.00;;;;4990940;27;117044;-64
2023/04/12 06:09:23;;;;;;;9.53;2.97;;;6.10;99.90;6.30;99897.00;;;;5006610;27;110582;-65
2023/04/12 06:11:51;;;;;;;1.87;1.67;;;6.90;99.90;6.50;99887.00;;;;5009027;27;110243;-64
2023/04/12 06:14:16;;;;;;;2.50;2.27;;;6.80;99.90;6.60;99893.00;;;;4990218;27;90471;-64
2023/04/12 06:16:42;;;;;;;6.23;3.83;;;6.70;99.90;6.80;99883.00;;;;4999924;27;117539;-64
2023/04/12 06:19:10;;;;;;;4.77;2.93;;;7.40;99.90;7.00;99871.00;;;;5000213;27;104273;-65
2023/04/12 06:21:36;;;;;;;6.50;3.00;;;7.10;99.90;7.20;99875.00;;;;5016209;27;87991;-64
2023/04/12 06:24:02;;;;;;;5.67;4.20;;;7.20;99.90;7.50;99865.00;;;;5003906;27;117545;-64
2023/04/12 06:26:29;;;;;;;6.90;3.47;;;7.50;99.90;7.70;99877.00;;;;5007119;27;109182;-64
2023/04/12 06:28:54;;;;;;;4.67;2.70;;;7.70;99.90;8.00;99871.00;;;;5003707;27;104484;-64
2023/04/12 06:31:20;;;;;;;3.47;3.17;;;7.90;99.90;8.20;99869.00;;;;5004975;27;108691;-65
2023/04/12 06:33:46;;;;;;;4.47;3.27;;;8.10;99.90;8.50;99860.00;;;;5005548;27;117972;-66
2023/04/12 06:36:14;;;;;;;2.47;2.07;;;8.40;99.90;8.70;99848.00;;;;5004845;27;88258;-65
2023/04/12 06:38:40;;;;;;;4.40;2.40;;;8.70;99.90;9.00;99851.00;;;;4986073;27;88324;-65
2023/04/12 06:41:06;;;;;;;1.53;1.23;;;9.00;99.90;9.20;99853.00;;;;5003677;27;87961;-66
2023/04/12 06:43:31;;;;;;;2.33;1.57;;;9.20;99.90;9.50;99850.00;;;;5005560;27;89088;-65
2023/04/12 06:45:57;;;;;;;2.10;1.40;;;9.50;99.90;9.80;99848.00;;;;5009028;27;117763;-66
2023/04/12 06:48:23;;;;;;;1.57;1.33;;;9.70;99.90;10.10;99850.00;;;;5002772;27;110416;-64
2023/04/12 06:50:48;;;;;;;4.63;1.37;;;10.00;99.90;10.40;99843.00;;;;5003409;27;103323;-65
2023/04/12 06:53:14;;;;;;;2.57;1.17;;;10.40;99.90;10.80;99853.00;;;;5006011;27;117768;-65
2023/04/12 06:55:40;;;;;;;1.33;1.17;;;10.70;99.90;11.20;99849.00;;;;5006797;27;88439;-64
2023/04/12 06:58:06;;;;;;;1.30;0.87;;;11.00;99.90;11.50;99847.00;;;;5002131;27;109986;-65
2023/04/12 07:00:31;;;;;;;1.00;0.93;;;11.40;99.90;11.80;99837.00;;;;5001075;27;108447;-65
2023/04/12 07:02:57;;;;;;;1.83;1.27;;;11.70;99.90;12.10;99836.00;;;;5004801;27;101373;-65
2023/04/12 07:05:25;;;;;;;0.77;0.77;;;12.00;99.90;12.40;99838.00;;;;5007628;27;116527;-65
2023/04/12 07:07:51;;;;;;;1.17;0.93;;;12.30;99.90;12.60;99830.00;;;;5004660;27;110490;-65
2023/04/12 07:10:17;;;;;;;1.20;0.60;;;12.50;99.90;12.80;99827.00;;;;5005008;27;107224;-65
2023/04/12 07:12:42;;;;;;;1.53;0.83;;;12.70;99.90;13.00;99821.00;;;;4997418;27;117876;-65
2023/04/12 07:15:09;;;;;;;0.70;0.60;;;12.90;99.90;13.10;99813.00;;;;5004110;27;118006;-65
2023/04/12 07:17:35;;;;;;;0.70;0.60;;;13.10;96.90;13.20;99822.00;;;;5002477;27;88309;-65
2023/04/12 07:20:01;;;;;;;0.47;0.47;;;13.20;96.90;13.40;99807.00;;;;5003865;27;87863;-66
2023/04/12 07:22:26;;;;;;;2.97;0.90;;;13.30;96.50;13.60;99805.00;;;;5004206;27;117071;-66
2023/04/12 07:24:52;;;;;;;0.50;0.50;;;13.50;94.20;13.70;99804.00;;;;5004043;27;119087;-66
2023/04/12 07:27:17;;;;;;;1.57;0.70;;;13.70;89.70;13.70;99802.00;;;;5004528;27;87701;-66
2023/04/12 07:29:43;;;;;;;0.60;0.57;;;13.70;90.40;13.80;99801.00;;;;5005059;27;109244;-65
2023/04/12 07:32:09;;;;;;;1.17;0.57;;;13.80;85.10;13.80;99797.00;;;;5003927;27;119064;-65
2023/04/12 07:34:36;;;;;;;0.63;0.60;;;13.80;78.70;13.80;99797.00;;;;5004541;27;88108;-64
2023/04/12 07:37:02;;;;;;;0.45;0.45;;;13.80;76.20;13.80;99794.00;;;;4999113;27;87856;-65
2023/04/12 07:39:28;;;;;;;2.05;0.85;;;13.80;75.50;13.90;99783.00;;;;5005809;27;87899;-64
2023/04/12 07:41:54;;;;;;;0.93;0.70;;;13.90;71.90;14.00;99788.00;;;;5005219;27;87994;-64
2023/04/12 07:44:20;;;;;;;0.63;0.57;;;14.00;71.80;14.10;99785.00;;;;5006854;27;88571;-65
2023/04/12 07:46:46;;;;;;;0.85;0.82;;;14.10;70.30;14.30;99777.00;;;;5001994;27;100064;-64
2023/04/12 07:49:12;;;;;;;0.40;0.40;;;14.20;67.40;14.40;99766.00;;;;5005523;27;87112;-64
2023/04/12 07:51:37;;;;;;;0.95;0.47;;;14.30;61.80;14.30;99764.00;;;;5002159;27;118616;-63
2023/04/12 07:54:03;;;;;;;0.30;0.30;;;14.40;61.90;14.40;99768.00;;;;5000652;27;116482;-63
2023/04/12 07:56:29;;;;;;;0.60;0.50;;;14.40;62.70;14.50;99756.00;;;;5002354;27;110196;-64
2023/04/12 07:58:55;;;;;;;2.97;0.45;;;14.50;60.90;14.60;99760.00;;;;5007206;27;88112;-64
2023/04/12 08:01:20;;;;;;;0.82;0.60;;;14.60;60.30;14.80;99755.00;;;;5003079;27;118579;-64
2023/04/12 08:03:46;;;;;;;0.93;0.40;;;14.70;58.60;14.90;99746.00;;;;5002334;27;118525;-64
2023/04/12 08:06:12;;;;;;;1.73;0.50;;;14.90;57.50;15.10;99752.00;;;;5002632;27;110125;-64
2023/04/12 08:08:37;;;;;;;0.52;0.30;;;15.00;56.90;15.20;99755.00;;;;5006143;27;108154;-64
2023/04/12 08:11:05;;;;;;;1.17;0.47;;;15.20;55.20;15.20;99746.00;;;;5001363;27;118073;-64
2023/04/12 08:13:32;;;;;;;0.90;0.52;;;15.20;52.60;15.30;99743.00;;;;4996905;27;88540;-64
2023/04/12 08:15:58;;;;;;;0.85;0.65;;;15.20;52.50;15.20;99731.00;;;;5001643;27;87825;-63
2023/04/12 08:18:23;;;;;;;1.00;0.40;;;15.20;51.80;15.10;99738.00;;;;5000168;27;109476;-66
2023/04/12 08:20:49;;;;;;;0.90;0.32;;;15.20;51.80;15.30;99740.00;;;;5003636;27;89833;-64
2023/04/12 08:23:15;;;;;;;0.75;0.52;;;15.20;49.90;15.30;99722.00;;;;5006717;27;118337;-63
2023/04/12 08:25:41;;;;;;;0.88;0.40;;;15.30;46.70;15.10;99722.00;;;;5005227;27;87992;-65
2023/04/12 08:28:07;;;;;;;0.60;0.45;;;15.10;46.30;15.00;99719.00;;;;5002871;27;108395;-64
2023/04/12 08:30:33;;;;;;;0.52;0.52;;;15.10;47.10;15.00;99717.00;;;;5002047;27;88376;-64
2023/04/12 08:32:59;;;;;;;2.17;0.43;;;15.00;47.70;15.10;99712.00;;;;4999786;27;108448;-64
2023/04/12 08:35:24;;;;;;;0.40;0.40;;;15.00;48.30;15.20;99726.00;;;;5004941;27;109061;-64
2023/04/12 08:37:51;;;;;;;4.95;0.47;;;15.10;46.20;15.20;99708.00;;;;5006021;27;86979;-64
2023/04/12 08:40:17;;;;;;;2.88;0.95;;;15.10;44.10;15.00;99706.00;;;;5004693;27;88377;-65
2023/04/12 08:42:43;;;;;;;1.00;0.75;;;15.00;43.40;15.00;99698.00;;;;5003666;27;87815;-64
2023/04/12 08:45:10;;;;;;;3.75;0.88;;;15.00;43.20;15.00;99692.00;;;;5003418;27;89826;-64
2023/04/12 08:47:42;;;;;;;0.77;0.63;;;14.90;42.00;14.90;99682.00;;;;5006279;27;88157;-64
2023/04/12 08:50:12;;;;;;;1.33;0.68;;;14.90;42.60;14.90;99692.00;;;;5005697;27;88712;-64
2023/04/12 08:52:38;;;;;;;2.83;1.05;;;14.90;42.40;14.90;99682.00;;;;5001664;27;88625;-65
2023/04/12 08:55:06;;;;;;;1.65;0.80;;;14.80;42.30;14.90;99686.00;;;;5003012;27;87716;-64
2023/04/12 08:57:31;;;;;;;1.65;0.38;;;14.80;43.80;15.10;99688.00;;;;5006701;27;87936;-64
2023/04/12 09:00:00;;;;;;;0.40;0.40;;;14.90;43.40;15.10;99678.00;;;;5020611;27;94482;-64
2023/04/12 09:02:26;;;;;;;0.20;0.20;;;15.00;43.10;15.10;99672.00;;;;5001544;27;88656;-65
2023/04/12 09:04:52;;;;;;;0.93;0.50;;;15.00;43.40;15.10;99671.00;;;;4995434;27;87820;-64
2023/04/12 09:07:22;;;;;;;0.30;0.30;;;15.00;43.30;15.10;99679.00;;;;4999775;27;88039;-64
2023/04/12 09:09:49;;;;;;;3.17;0.50;;;15.00;44.00;15.10;99669.00;;;;5003861;27;90924;-65
2023/04/12 09:12:15;;;;;;;1.30;0.60;;;15.00;43.90;15.20;99666.00;;;;5004897;27;89741;-64
2023/04/12 09:14:44;;;;;;;1.00;0.30;;;15.10;44.60;15.30;99672.00;;;;4983078;27;87858;-64
2023/04/12 09:17:24;;;;;;;0.73;0.43;;;15.20;45.60;15.40;99668.00;;;;5003854;27;87885;-64
2023/04/12 09:19:51;;;;;;;1.75;1.17;;;15.20;45.70;15.60;99656.00;;;;5005527;27;88216;-65
2023/04/12 09:22:16;;;;;;;1.58;0.20;;;15.40;46.30;15.70;99663.00;;;;5003272;27;88195;-65
2023/04/12 09:24:51;;;;;;;0.30;0.30;;;15.50;46.80;15.90;99662.00;;;;5001970;27;87953;-64
2023/04/12 09:27:21;;;;;;;2.78;1.13;;;15.70;46.00;15.80;99655.00;;;;5003915;27;87358;-65
2023/04/12 09:29:50;;;;;;;2.38;0.50;;;15.60;45.20;15.80;99647.00;;;;5004133;27;89453;-65
2023/04/12 09:32:27;;;;;;;0.75;0.70;;;15.60;46.30;15.80;99647.00;;;;5005999;27;87929;-64
2023/04/12 09:35:00;;;;;;;7.80;0.85;;;15.60;47.10;15.90;99651.00;;;;5001757;27;88880;-64
2023/04/12 09:37:25;;;;;;;1.42;0.88;;;15.70;47.50;15.80;99638.00;;;;5003265;27;87875;-64
2023/04/12 09:40:07;;;;;;;1.98;0.60;;;15.70;48.10;15.90;99627.00;;;;5002842;27;119333;-66
2023/04/12 09:42:35;;;;;;;3.65;0.28;;;15.70;49.00;16.10;99638.00;;;;5001465;27;88659;-65
2023/04/12 09:45:20;;;;;;;0.80;0.70;;;15.80;49.00;16.30;99631.00;;;;5003640;27;87897;-66
2023/04/12 09:47:46;;;;;;;0.82;0.30;;;16.10;49.10;16.50;99628.00;;;;5005502;27;88032;-66
2023/04/12 09:50:32;;;;;;;1.13;0.93;;;16.30;49.00;16.50;99620.00;;;;5003698;27;88733;-65
2023/04/12 09:53:01;;;;;;;0.57;0.50;;;16.30;48.70;16.50;99611.00;;;;5004009;27;88003;-65
2023/04/12 09:55:30;;;;;;;0.70;0.50;;;16.30;48.60;16.40;99618.00;;;;5003395;27;87604;-66
2023/04/12 09:58:02;;;;;;;1.13;0.47;;;16.20;48.60;16.50;99601.00;;;;5006242;27;89012;-66
2023/04/12 10:00:30;;;;;;;1.33;0.60;;;16.30;47.90;16.50;99600.00;;;;5005017;27;88915;-65
2023/04/12 10:02:56;;;;;;;1.05;0.60;;;16.30;47.50;16.60;99599.00;;;;5005705;27;89513;-66
2023/04/12 10:05:24;;;;;;;0.77;0.25;;;16.30;47.80;16.60;99602.00;;;;5004780;27;87926;-66
2023/04/12 10:07:50;;;;;;;0.65;0.65;;;16.30;47.50;16.50;99596.00;;;;5000996;27;87708;-66
2023/04/12 10:10:18;;;;;;;1.00;0.57;;;16.30;47.00;16.40;99592.00;;;;5002663;27;103967;-66
2023/04/12 10:12:56;;;;;;;1.25;0.57;;;16.20;47.00;16.20;99572.00;;;;5000950;27;111148;-65
2023/04/12 10:15:24;;;;;;;0.65;0.32;;;16.10;47.90;16.30;99567.00;;;;5003972;27;109190;-68
2023/04/12 10:17:53;;;;;;;2.03;0.70;;;16.10;48.40;16.50;99562.00;;;;5021232;27;86962;-68
2023/04/12 10:20:21;;;;;;;1.50;0.98;;;16.20;48.60;16.60;99563.00;;;;5018252;27;88029;-69
2023/04/12 10:22:53;;;;;;;1.63;0.70;;;16.40;48.80;16.90;99553.00;;;;5007322;27;87945;-66
2023/04/12 10:25:25;;;;;;;0.47;0.47;;;16.50;48.90;17.00;99548.00;;;;5007179;27;88861;-66
2023/04/12 10:27:51;;;;;;;1.98;0.52;;;16.70;47.60;17.00;99550.00;;;;5008389;27;87812;-68
2023/04/12 10:30:28;;;;;;;3.90;0.95;;;16.70;47.40;17.10;99536.00;;;;4990760;27;89980;-65
2023/04/12 10:33:03;;;;;;;0.77;0.50;;;16.80;47.80;17.10;99531.00;;;;5005415;27;105192;-67
2023/04/12 10:35:48;;;;;;;1.13;0.50;;;16.90;47.10;17.20;99522.00;;;;5005350;27;88053;-66
2023/04/12 10:38:15;;;;;;;1.17;0.50;;;16.90;46.50;17.20;99525.00;;;;5017386;27;87963;-67
2023/04/12 10:41:10;;;;;;;0.32;0.32;;;17.00;46.30;17.40;99511.00;;;;5006302;27;98941;-68
2023/04/12 10:43:36;;;;;;;1.38;0.75;;;17.10;46.60;17.60;99506.00;;;;5004160;27;88812;-68
2023/04/12 10:46:04;;;;;;;1.15;1.02;;;17.30;46.20;17.70;99511.00;;;;5006306;27;87853;-69
2023/04/12 10:48:49;;;;;;;0.60;0.60;;;17.40;45.40;17.70;99505.00;;;;5007937;27;87763;-68
2023/04/12 10:51:29;;;;;;;0.98;0.40;;;17.50;45.20;17.80;99518.00;;;;5002959;27;108930;-67
2023/04/12 10:54:07;;;;;;;1.75;0.88;;;17.60;44.50;17.90;99488.00;;;;5007546;27;88042;-66
2023/04/12 10:56:41;;;;;;;0.38;0.32;;;17.60;44.50;18.00;99501.00;;;;5003714;27;97527;-67
2023/04/12 10:59:12;;;;;;;2.63;0.57;;;17.70;44.60;17.80;99491.00;;;;5005293;27;88183;-69
2023/04/12 11:01:39;;;;;;;1.33;0.73;;;17.70;42.70;17.70;99490.00;;;;5004835;27;111523;-69